createdAt,value
2022-11-03T00:02:02.752Z,18.58
2022-11-03T00:04:29.358Z,18.57
2022-11-03T00:06:56.226Z,18.59
2022-11-03T00:09:23.983Z,18.58
2022-11-03T00:11:51.522Z,18.56
2022-11-03T00:14:19.033Z,18.57
2022-11-03T00:16:46.054Z,18.57
2022-11-03T00:19:17.120Z,18.56
2022-11-03T00:21:44.388Z,18.56
2022-11-03T00:24:11.313Z,18.54
2022-11-03T00:26:38.411Z,18.54
2022-11-03T00:29:10.954Z,18.53
2022-11-03T00:31:39.795Z,18.53
2022-11-03T00:34:07.842Z,18.52
2022-11-03T00:36:37.176Z,18.52
2022-11-03T00:39:04.501Z,18.52
2022-11-03T00:41:31.692Z,18.51
2022-11-03T00:43:58.304Z,18.48
2022-11-03T00:46:25.877Z,18.49
2022-11-03T00:48:52.642Z,18.49
2022-11-03T00:51:27.356Z,18.49
2022-11-03T00:53:56.119Z,18.50
2022-11-03T00:56:25.113Z,18.50
2022-11-03T00:58:52.759Z,18.47
2022-11-03T01:01:21.090Z,18.47
2022-11-03T01:04:09.327Z,18.47
2022-11-03T01:06:50.274Z,18.46
2022-11-03T01:09:25.155Z,18.46
2022-11-03T01:12:06.504Z,18.46
2022-11-03T01:14:35.340Z,18.47
2022-11-03T01:17:04.546Z,18.45
2022-11-03T01:19:31.070Z,18.44
2022-11-03T01:21:57.620Z,18.43
2022-11-03T01:24:24.108Z,18.43
2022-11-03T01:26:50.901Z,18.42
2022-11-03T01:29:17.645Z,18.43
2022-11-03T01:31:44.191Z,18.42
2022-11-03T01:34:19.102Z,18.41
2022-11-03T01:36:46.011Z,18.42
2022-11-03T01:39:14.462Z,18.40
2022-11-03T01:41:42.751Z,18.39
2022-11-03T01:44:09.256Z,18.39
2022-11-03T01:46:44.156Z,18.39
2022-11-03T01:49:35.336Z,18.37
2022-11-03T01:52:16.744Z,18.38
2022-11-03T01:54:46.106Z,18.38
2022-11-03T01:57:18.256Z,18.37
2022-11-03T01:59:45.847Z,18.37
2022-11-03T02:02:12.928Z,18.36
2022-11-03T02:04:39.929Z,18.36
2022-11-03T02:07:17.574Z,18.36
2022-11-03T02:09:44.079Z,18.36
2022-11-03T02:12:11.130Z,18.36
2022-11-03T02:15:03.384Z,18.33
2022-11-03T02:17:32.201Z,18.34
2022-11-03T02:20:11.958Z,18.34
2022-11-03T02:22:41.508Z,18.34
2022-11-03T02:25:29.730Z,18.33
2022-11-03T02:27:56.509Z,18.34
2022-11-03T02:30:23.049Z,18.34
2022-11-03T02:33:29.067Z,18.32
2022-11-03T02:36:02.893Z,18.33
2022-11-03T02:38:32.184Z,18.33
2022-11-03T02:41:03.219Z,18.32
2022-11-03T02:43:30.212Z,18.31
2022-11-03T02:45:56.805Z,18.32
2022-11-03T02:48:23.327Z,18.33
2022-11-03T02:50:49.850Z,18.32
2022-11-03T02:53:16.998Z,18.32
2022-11-03T02:55:55.780Z,18.31
2022-11-03T02:58:31.290Z,18.30
2022-11-03T03:01:19.969Z,18.30
2022-11-03T03:04:09.176Z,18.30
2022-11-03T03:06:58.019Z,18.29
2022-11-03T03:10:02.787Z,18.28
2022-11-03T03:12:32.388Z,18.30
2022-11-03T03:15:01.019Z,18.30
2022-11-03T03:17:33.173Z,18.28
2022-11-03T03:20:05.787Z,18.30
2022-11-03T03:22:52.215Z,18.28
2022-11-03T03:25:27.099Z,18.28
2022-11-03T03:28:00.613Z,18.27
2022-11-03T03:30:29.384Z,18.27
2022-11-03T03:32:59.352Z,18.25
2022-11-03T03:35:30.786Z,18.26
2022-11-03T03:38:04.307Z,18.25
2022-11-03T03:40:32.471Z,18.25
2022-11-03T03:43:01.794Z,18.29
2022-11-03T03:45:30.334Z,18.28
2022-11-03T03:47:58.041Z,18.27
2022-11-03T03:50:27.687Z,18.26
2022-11-03T03:53:02.154Z,18.25
2022-11-03T03:55:40.841Z,18.24
2022-11-03T03:58:08.181Z,18.23
2022-11-03T04:00:34.894Z,18.23
2022-11-03T04:03:01.374Z,18.22
2022-11-03T04:05:27.939Z,18.23
2022-11-03T04:07:54.474Z,18.23
2022-11-03T04:10:22.621Z,18.22
2022-11-03T04:13:07.911Z,18.23
2022-11-03T04:16:03.596Z,18.22
2022-11-03T04:18:48.894Z,18.23
2022-11-03T04:21:34.149Z,18.23
2022-11-03T04:24:00.703Z,18.22
2022-11-03T04:26:28.422Z,18.23
2022-11-03T04:28:57.145Z,18.22
2022-11-03T04:31:23.975Z,18.23
2022-11-03T04:33:50.951Z,18.23
2022-11-03T04:36:23.027Z,18.22
2022-11-03T04:38:51.040Z,18.22
2022-11-03T04:41:21.615Z,18.22
2022-11-03T04:43:49.832Z,18.21
2022-11-03T04:46:24.496Z,18.20
2022-11-03T04:48:53.298Z,18.21
2022-11-03T04:51:24.411Z,18.20
2022-11-03T04:53:54.800Z,18.21
2022-11-03T04:56:24.343Z,18.21
2022-11-03T04:58:52.119Z,18.22
2022-11-03T05:01:24.474Z,18.20
2022-11-03T05:03:53.919Z,18.21
2022-11-03T05:06:28.741Z,18.19
2022-11-03T05:09:10.847Z,18.20
2022-11-03T05:11:44.045Z,18.20
2022-11-03T05:14:31.311Z,18.18
2022-11-03T05:16:59.774Z,18.19
2022-11-03T05:19:34.251Z,18.19
2022-11-03T05:22:03.289Z,18.19
2022-11-03T05:24:31.028Z,18.18
2022-11-03T05:26:59.989Z,18.19
2022-11-03T05:29:36.821Z,18.17
2022-11-03T05:32:03.705Z,18.19
2022-11-03T05:34:30.120Z,18.17
2022-11-03T05:37:26.881Z,18.17
2022-11-03T05:39:57.715Z,18.18
2022-11-03T05:42:34.128Z,18.17
2022-11-03T05:45:04.521Z,18.17
2022-11-03T05:47:39.526Z,18.16
2022-11-03T05:50:19.006Z,18.15
2022-11-03T05:52:47.174Z,18.16
2022-11-03T05:55:27.600Z,18.15
2022-11-03T05:57:56.652Z,18.17
2022-11-03T06:00:32.746Z,18.16
2022-11-03T06:03:00.158Z,18.16
2022-11-03T06:05:27.894Z,18.16
2022-11-03T06:07:56.637Z,18.15
2022-11-03T06:10:28.215Z,18.16
2022-11-03T06:12:59.342Z,18.16
2022-11-03T06:15:35.092Z,18.15
2022-11-03T06:18:14.702Z,18.15
2022-11-03T06:20:41.699Z,18.16
2022-11-03T06:23:15.758Z,18.16
2022-11-03T06:25:43.376Z,18.15
2022-11-03T06:28:22.585Z,18.14
2022-11-03T06:30:49.340Z,18.15
2022-11-03T06:33:28.626Z,18.15
2022-11-03T06:36:00.607Z,18.15
2022-11-03T06:38:31.910Z,18.14
2022-11-03T06:40:59.007Z,18.15
2022-11-03T06:43:52.067Z,18.13
2022-11-03T06:46:23.881Z,18.15
2022-11-03T06:48:58.842Z,18.14
2022-11-03T06:51:29.865Z,18.13
2022-11-03T06:54:01.276Z,18.14
2022-11-03T06:56:36.751Z,18.13
2022-11-03T06:59:03.296Z,18.15
2022-11-03T07:01:32.439Z,18.14
2022-11-03T07:04:05.904Z,18.14
2022-11-03T07:06:36.369Z,18.14
2022-11-03T07:09:05.985Z,18.15
2022-11-03T07:11:41.462Z,18.15
2022-11-03T07:14:14.716Z,18.15
2022-11-03T07:16:47.172Z,18.14
2022-11-03T07:19:22.114Z,18.15
2022-11-03T07:21:52.876Z,18.15
2022-11-03T07:24:24.148Z,18.16
2022-11-03T07:27:02.491Z,18.13
2022-11-03T07:29:31.217Z,18.16
2022-11-03T07:31:59.608Z,18.15
2022-11-03T07:34:32.205Z,18.15
2022-11-03T07:36:58.897Z,18.14
2022-11-03T07:39:32.554Z,18.15
2022-11-03T07:41:59.223Z,18.16
2022-11-03T07:44:25.695Z,18.16
2022-11-03T07:46:52.246Z,18.16
2022-11-03T07:49:27.428Z,18.16
2022-11-03T07:51:56.205Z,18.16
2022-11-03T07:54:26.067Z,18.17
2022-11-03T07:57:04.113Z,18.16
2022-11-03T07:59:35.262Z,18.16
2022-11-03T08:02:03.194Z,18.17
2022-11-03T08:04:33.615Z,18.17
2022-11-03T08:07:00.205Z,18.17
2022-11-03T08:09:27.259Z,18.19
2022-11-03T08:11:54.292Z,18.17
2022-11-03T08:14:20.812Z,18.17
2022-11-03T08:16:47.382Z,18.17
2022-11-03T08:19:13.883Z,18.17
2022-11-03T08:21:40.351Z,18.17
2022-11-03T08:24:07.038Z,18.17
2022-11-03T08:26:33.740Z,18.17
2022-11-03T08:29:00.354Z,18.17
2022-11-03T08:31:27.128Z,18.18
2022-11-03T08:33:53.825Z,18.19
2022-11-03T08:36:20.862Z,18.19
2022-11-03T08:38:47.421Z,18.20
2022-11-03T08:41:13.950Z,18.19
2022-11-03T08:43:40.411Z,18.20
2022-11-03T08:46:15.843Z,18.21
2022-11-03T08:48:44.387Z,18.21
2022-11-03T08:51:13.458Z,18.22
2022-11-03T08:53:42.450Z,18.22
2022-11-03T08:56:12.274Z,18.22
2022-11-03T08:58:40.138Z,18.22
2022-11-03T09:01:07.984Z,18.23
2022-11-03T09:03:34.630Z,18.24
2022-11-03T09:06:01.188Z,18.24
2022-11-03T09:11:14.226Z,18.26
2022-11-03T09:13:40.718Z,18.28
2022-11-03T09:16:07.665Z,18.29
2022-11-03T09:18:34.147Z,18.29
2022-11-03T09:21:00.806Z,18.29
2022-11-03T09:23:27.357Z,18.30
2022-11-03T09:25:53.936Z,18.31
2022-11-03T09:28:20.413Z,18.31
2022-11-03T09:30:46.977Z,18.32
2022-11-03T09:33:13.461Z,18.33
2022-11-03T09:35:39.934Z,18.34
2022-11-03T09:38:07.947Z,18.35
2022-11-03T09:40:36.165Z,18.36
2022-11-03T09:43:03.173Z,18.36
2022-11-03T09:45:29.821Z,18.37
2022-11-03T09:47:56.568Z,18.37
2022-11-03T09:50:23.412Z,18.37
2022-11-03T09:52:52.412Z,18.37
2022-11-03T09:55:26.825Z,18.38
2022-11-03T09:57:57.513Z,18.37
2022-11-03T10:00:24.164Z,18.38
2022-11-03T10:02:51.061Z,18.38
2022-11-03T10:05:28.228Z,18.38
2022-11-03T10:08:05.550Z,18.38
2022-11-03T10:10:33.324Z,18.39
2022-11-03T10:13:01.007Z,18.39
2022-11-03T10:15:27.874Z,18.38
2022-11-03T10:17:55.612Z,18.39
2022-11-03T10:20:23.078Z,18.38
2022-11-03T10:22:54.718Z,18.39
2022-11-03T10:25:33.232Z,18.40
2022-11-03T10:28:24.080Z,18.40
2022-11-03T10:31:11.433Z,18.41
2022-11-03T10:33:53.811Z,18.42
2022-11-03T10:36:20.258Z,18.42
2022-11-03T10:38:47.855Z,18.41
2022-11-03T10:41:19.900Z,18.43
2022-11-03T10:44:10.939Z,18.43
2022-11-03T10:46:50.754Z,18.43
2022-11-03T10:49:19.959Z,18.44
2022-11-03T10:51:52.931Z,18.45
2022-11-03T10:54:22.820Z,18.44
2022-11-03T10:56:51.003Z,18.44
2022-11-03T10:59:19.040Z,18.45
2022-11-03T11:01:46.410Z,18.46
2022-11-03T11:04:18.323Z,18.47
2022-11-03T11:06:46.161Z,18.48
2022-11-03T11:09:16.628Z,18.49
2022-11-03T11:12:02.494Z,18.48
2022-11-03T11:14:28.946Z,18.50
2022-11-03T11:16:57.372Z,18.51
2022-11-03T11:19:25.796Z,18.52
2022-11-03T11:21:55.145Z,18.53
2022-11-03T11:24:51.015Z,18.53
2022-11-03T11:27:57.056Z,18.54
2022-11-03T11:30:27.279Z,18.57
2022-11-03T11:33:12.614Z,18.58
2022-11-03T11:35:39.114Z,18.60
2022-11-03T11:39:00.173Z,18.60
2022-11-03T11:42:04.291Z,18.61
2022-11-03T11:44:39.957Z,18.64
2022-11-03T11:47:35.013Z,18.63
2022-11-03T11:50:09.476Z,18.65
2022-11-03T11:52:38.950Z,18.65
2022-11-03T11:55:05.872Z,18.66
2022-11-03T11:57:35.215Z,18.66
2022-11-03T12:00:01.832Z,18.68
2022-11-03T12:02:31.116Z,18.68
2022-11-03T12:05:04.814Z,18.69
2022-11-03T12:07:31.765Z,18.71
2022-11-03T12:10:08.189Z,18.73
2022-11-03T12:12:35.318Z,18.73
2022-11-03T12:15:01.841Z,18.74
2022-11-03T12:17:28.292Z,18.75
2022-11-03T12:19:55.311Z,18.76
2022-11-03T12:22:24.582Z,18.76
2022-11-03T12:24:52.138Z,18.76
2022-11-03T12:27:24.529Z,18.76
2022-11-03T12:29:55.896Z,18.77
2022-11-03T12:32:33.440Z,18.77
2022-11-03T12:35:01.312Z,18.77
2022-11-03T12:37:27.815Z,18.77
2022-11-03T12:39:54.328Z,18.77
2022-11-03T12:42:21.137Z,18.76
2022-11-03T12:44:47.852Z,18.77
2022-11-03T12:47:14.373Z,18.78
2022-11-03T12:49:40.855Z,18.80
2022-11-03T12:52:08.610Z,18.81
2022-11-03T12:54:35.507Z,18.82
2022-11-03T12:57:02.094Z,18.84
2022-11-03T12:59:28.664Z,18.85
2022-11-03T13:01:55.351Z,18.86
2022-11-03T13:04:21.907Z,18.88
2022-11-03T13:06:48.463Z,18.89
2022-11-03T13:09:15.018Z,18.91
2022-11-03T13:11:59.987Z,18.91
2022-11-03T13:14:26.716Z,18.94
2022-11-03T13:16:53.400Z,18.95
2022-11-03T13:19:20.366Z,18.95
2022-11-03T13:21:46.871Z,18.96
2022-11-03T13:24:13.349Z,18.97
2022-11-03T13:26:39.869Z,18.96
2022-11-03T13:29:06.371Z,18.98
2022-11-03T13:31:32.873Z,18.98
2022-11-03T13:33:59.388Z,18.98
2022-11-03T13:36:25.933Z,18.97
2022-11-03T13:38:52.585Z,18.97
2022-11-03T13:41:19.125Z,18.97
2022-11-03T13:43:45.678Z,18.96
2022-11-03T13:46:12.922Z,18.95
2022-11-03T13:51:26.398Z,18.94
2022-11-03T13:59:26.656Z,18.92
2022-11-03T14:07:11.908Z,18.89
2022-11-03T14:09:46.003Z,18.88
2022-11-03T14:12:31.038Z,18.89
2022-11-03T14:15:06.196Z,18.87
2022-11-03T14:17:33.018Z,18.87
2022-11-03T14:20:04.105Z,18.87
2022-11-03T14:22:31.770Z,18.86
2022-11-03T14:24:58.585Z,18.86
2022-11-03T14:27:25.344Z,18.86
2022-11-03T14:29:51.988Z,18.85
2022-11-03T14:32:19.244Z,18.84
2022-11-03T14:34:45.922Z,18.84
2022-11-03T14:37:13.233Z,18.84
2022-11-03T14:39:40.180Z,18.85
2022-11-03T14:42:15.043Z,18.84
2022-11-03T14:44:42.893Z,18.83
2022-11-03T14:47:11.796Z,18.84
2022-11-03T14:49:38.445Z,18.82
2022-11-03T14:52:07.362Z,18.82
2022-11-03T14:54:34.769Z,18.82
2022-11-03T14:57:01.995Z,18.81
2022-11-03T14:59:28.713Z,18.81
2022-11-03T15:01:56.061Z,18.80
2022-11-03T15:04:22.902Z,18.79
2022-11-03T15:06:49.962Z,18.78
2022-11-03T15:09:16.609Z,18.78
2022-11-03T15:11:44.312Z,18.78
2022-11-03T15:14:11.967Z,18.77
2022-11-03T15:16:39.200Z,18.77
2022-11-03T15:19:06.647Z,18.76
2022-11-03T15:21:33.597Z,18.74
2022-11-03T15:26:46.850Z,18.74
2022-11-03T15:29:13.497Z,18.72
2022-11-03T15:31:44.469Z,18.73
2022-11-03T15:34:13.923Z,18.72
2022-11-03T15:36:40.486Z,18.71
2022-11-03T15:39:07.041Z,18.69
2022-11-03T15:41:33.532Z,18.69
2022-11-03T15:44:00.042Z,18.67
2022-11-03T15:46:26.725Z,18.66
2022-11-03T15:48:54.474Z,18.66
2022-11-03T15:51:21.158Z,18.65
2022-11-03T15:53:47.665Z,18.63
2022-11-03T15:56:14.227Z,18.62
2022-11-03T15:58:41.085Z,18.61
2022-11-03T16:01:07.694Z,18.61
2022-11-03T16:03:34.355Z,18.60
2022-11-03T16:06:00.874Z,18.59
2022-11-03T16:08:27.355Z,18.58
2022-11-03T16:10:57.936Z,18.58
2022-11-03T16:13:24.790Z,18.59
2022-11-03T16:15:51.790Z,18.57
2022-11-03T16:18:18.328Z,18.56
2022-11-03T16:20:44.858Z,18.55
2022-11-03T16:23:11.354Z,18.55
2022-11-03T16:25:37.910Z,18.55
2022-11-03T16:28:04.837Z,18.55
2022-11-03T16:30:31.789Z,18.56
2022-11-03T16:32:58.334Z,18.55
2022-11-03T16:35:24.932Z,18.55
2022-11-03T16:37:51.511Z,18.54
2022-11-03T16:40:19.878Z,18.54
2022-11-03T16:42:47.152Z,18.54
2022-11-03T16:45:21.737Z,18.53
2022-11-03T16:47:49.780Z,18.54
2022-11-03T16:50:17.399Z,18.54
2022-11-03T16:52:45.247Z,18.52
2022-11-03T16:55:12.027Z,18.52
2022-11-03T16:57:39.452Z,18.52
2022-11-03T17:00:08.719Z,18.50
2022-11-03T17:02:35.344Z,18.50
2022-11-03T17:05:01.905Z,18.49
2022-11-03T17:07:28.375Z,18.50
2022-11-03T17:09:54.889Z,18.49
2022-11-03T17:12:21.363Z,18.48
2022-11-03T17:14:51.202Z,18.48
2022-11-03T17:17:20.586Z,18.46
2022-11-03T17:19:47.115Z,18.47
2022-11-03T17:22:13.749Z,18.47
2022-11-03T17:24:40.218Z,18.46
2022-11-03T17:27:14.495Z,18.45
2022-11-03T17:29:53.948Z,18.46
2022-11-03T17:32:28.659Z,18.44
2022-11-03T17:34:55.845Z,18.43
2022-11-03T17:37:23.640Z,18.42
2022-11-03T17:39:50.358Z,18.43
2022-11-03T17:42:17.813Z,18.43
2022-11-03T17:44:45.599Z,18.42
2022-11-03T17:47:12.107Z,18.42
2022-11-03T17:49:38.691Z,18.42
2022-11-03T17:52:09.784Z,18.39
2022-11-03T17:54:36.269Z,18.39
2022-11-03T17:57:04.070Z,18.38
2022-11-03T17:59:30.660Z,18.38
2022-11-03T18:01:57.588Z,18.37
2022-11-03T18:04:24.122Z,18.38
2022-11-03T18:06:50.718Z,18.36
2022-11-03T18:09:18.398Z,18.37
2022-11-03T18:12:03.738Z,18.37
2022-11-03T18:14:30.449Z,18.35
2022-11-03T18:16:57.840Z,18.36
2022-11-03T18:19:24.468Z,18.35
2022-11-03T18:21:51.007Z,18.35
2022-11-03T18:24:20.107Z,18.34
2022-11-03T18:26:46.675Z,18.35
2022-11-03T18:29:13.212Z,18.33
2022-11-03T18:31:50.753Z,18.32
2022-11-03T18:34:24.104Z,18.33
2022-11-03T18:36:52.641Z,18.32
2022-11-03T18:39:24.597Z,18.33
2022-11-03T18:41:51.406Z,18.33
2022-11-03T18:44:22.128Z,18.32
2022-11-03T18:46:51.210Z,18.32
2022-11-03T18:49:18.798Z,18.31
2022-11-03T18:51:49.065Z,18.31
2022-11-03T18:56:52.865Z,18.30
2022-11-03T18:59:26.582Z,18.30
2022-11-03T19:01:53.430Z,18.29
2022-11-03T19:04:20.034Z,18.32
2022-11-03T19:06:48.171Z,18.30
2022-11-03T19:09:21.171Z,18.28
2022-11-03T19:11:49.583Z,18.28
2022-11-03T19:14:23.143Z,18.28
2022-11-03T19:17:17.173Z,18.28
2022-11-03T19:19:39.406Z,18.28
2022-11-03T19:22:12.587Z,18.25
2022-11-03T19:24:39.092Z,18.30
2022-11-03T19:27:06.649Z,18.29
2022-11-03T19:29:37.733Z,18.30
2022-11-03T19:32:04.778Z,18.32
2022-11-03T19:34:35.242Z,18.35
2022-11-03T19:37:01.901Z,18.37
2022-11-03T19:39:40.198Z,18.39
2022-11-03T19:42:27.985Z,18.44
2022-11-03T19:44:55.897Z,18.46
2022-11-03T19:47:26.994Z,18.48
2022-11-03T19:49:55.224Z,18.50
2022-11-03T19:52:26.653Z,18.52
2022-11-03T19:54:54.382Z,18.53
2022-11-03T19:57:21.194Z,18.55
2022-11-03T19:59:47.795Z,18.56
2022-11-03T20:02:14.435Z,18.58
2022-11-03T20:04:46.845Z,18.61
2022-11-03T20:07:15.516Z,18.62
2022-11-03T20:09:42.308Z,18.65
2022-11-03T20:12:12.344Z,18.66
2022-11-03T20:14:38.844Z,18.68
2022-11-03T20:17:14.688Z,18.70
2022-11-03T20:19:41.271Z,18.71
2022-11-03T20:22:13.336Z,18.73
2022-11-03T20:24:39.973Z,18.74
2022-11-03T20:27:09.004Z,18.74
2022-11-03T20:29:36.894Z,18.77
2022-11-03T20:32:03.447Z,18.78
2022-11-03T20:34:29.958Z,18.81
2022-11-03T20:36:58.907Z,18.81
2022-11-03T20:39:26.590Z,18.81
2022-11-03T20:41:54.303Z,18.82
2022-11-03T20:44:20.863Z,18.82
2022-11-03T20:46:47.362Z,18.83
2022-11-03T20:49:14.087Z,18.85
2022-11-03T20:51:43.485Z,18.84
2022-11-03T20:54:17.573Z,18.86
2022-11-03T20:56:44.555Z,18.86
2022-11-03T21:01:45.979Z,18.86
2022-11-03T21:04:17.228Z,18.86
